Weathercam Coevorden Meer informatie Weathercam Coevorden



Het weer levert geen direct gevaar op.    Er zijn geen waarschuwingen afgegeven.

Select another period ( hide this area )

Eenheden Periode Custom range Directly to
Metrisch Engels Beide
Dagelijkse Wekelijkse Maandelijkse Jaarlijkse
use both date-selectors for a custom range
previous Dag
With this date

WeatherUnderground graphs for this period ( click here )


Dagelijkse Samenvatting Donderdag 12 december 2019
Tijd Temp. ( °C ) Dew pt. ( °C ) Wind ( km/h ) van Windvlaag ( km/h ) Luchtdruk ( hPa ) Humid.( % ) Rainrate ( cm )
Hoog5,2 3,5 18,7 ZO ( 188/558 ) 18,7 1006,3 89 -
Gemiddeld5,0 3,3 9,5 ZZO #20/59 10,0 1005,3 89 -
Laag4,7 3,0 5,0   5,0 1004,6 88 -
Dagelijkse Tabular details for Donderdag 12 december 2019
Tijd Temp. ( °C ) Dew pt. ( °C ) Wind ( km/h ) van Windvlaag ( km/h ) Luchtdruk ( hPa ) Humid.( % ) Rainrate ( cm )
00:01 4,7 3,0 11,6 ZZO 11,6 1006,3 89 -
00:05 4,7 3,0 7,2 Oosten 7,2 1006,3 89 -
00:11 4,8 3,1 6,9 ZO 9,3 1006,3 89 -
00:15 4,8 3,1 8,7 OZO 8,7 1006,3 89 -
00:21 4,8 3,1 8,7 ZZO 8,7 1006,3 89 -
00:25 4,8 3,1 7,2 ZO 7,2 1006,3 89 -
00:31 4,9 3,2 7,6 ZO 7,6 1006,3 89 -
00:35 4,9 3,2 9,7 ZO 9,7 1006,3 89 -
00:41 4,9 3,2 5,0 ZZO 12,2 1006,3 89 -
00:45 4,9 3,2 12,2 ZW 12,2 1006,3 89 -
00:51 5,0 3,3 11,1 ZZO 11,1 1006,3 89 -
00:55 5,0 3,3 10,8 ZO 10,8 1005,6 89 -
01:01 5,0 3,3 5,5 ZZW 5,5 1005,6 89 -
01:05 5,0 3,3 14,0 ZZO 14,0 1005,6 89 -
01:11 5,0 3,3 7,6 ZZO 7,6 1005,6 89 -
01:15 5,1 3,4 6,9 ZO 6,9 1005,6 89 -
01:22 5,1 3,4 10,8 Zuiden 10,8 1005,6 89 -
01:26 5,1 3,4 9,7 OZO 9,7 1005,6 89 -
01:30 5,1 3,4 6,1 ZZO 6,1 1005,6 89 -
01:36 5,1 3,4 6,9 ZZO 6,9 1005,6 89 -
01:40 5,1 3,4 11,1 ZO 11,1 1005,6 89 -
01:46 5,1 3,4 6,1 ZO 6,9 1005,6 89 -
01:50 5,1 3,4 14,8 ZO 14,8 1005,6 89 -
01:56 5,1 3,4 8,2 ZZO 8,2 1005,3 89 -
02:00 5,1 3,4 12,6 ZZO 12,6 1005,3 89 -
02:05 5,1 3,4 14,8 OZO 14,8 1005,3 89 -
02:11 5,2 3,5 7,6 ZO 9,7 1005,3 89 -
02:15 5,2 3,5 18,7 WZW 18,7 1005,3 89 -
02:21 5,2 3,5 8,7 ZZO 9,0 1005,3 89 -
02:25 5,2 3,5 12,2 ZZO 12,2 1005,3 89 -
02:31 5,2 3,4 7,2 ZW 7,2 1005,3 88 -
02:35 5,2 3,4 13,0 ZO 13,0 1005,3 88 -
02:41 5,2 3,4 5,8 NNO 5,8 1005,3 88 -
02:46 5,2 3,4 8,2 ZZO 9,0 1005,3 88 -
02:50 5,2 3,4 6,9 ZZO 6,9 1005,3 88 -
02:56 5,2 3,4 7,6 ZZO 7,6 1005,0 88 -
03:00 5,2 3,4 6,9 ZO 6,9 1005,0 88 -
03:06 5,2 3,4 6,1 WZW 6,1 1005,0 88 -
03:10 5,1 3,3 8,2 ZZO 8,2 1005,0 88 -
03:16 5,1 3,3 12,2 ZO 12,2 1004,6 88 -
03:20 5,1 3,3 5,0 ZZO 10,8 1004,6 88 -
03:26 5,1 3,3 17,2 Zuiden 17,2 1004,6 88 -
03:30 5,1 3,3 13,7 ZO 13,7 1004,6 88 -
03:36 5,1 3,3 5,0 ZZO 5,0 1004,6 88 -
03:40 5,1 3,3 10,8 ZO 10,8 1004,6 88 -
03:45 5,1 3,3 8,7 ZO 8,7 1004,6 88 -
03:51 5,0 3,2 9,3 ZO 13,4 1004,6 88 -
03:55 5,0 3,2 10,8 ZO 12,6 1004,6 88 -
04:01 5,0 3,2 5,0 ZZO 10,8 1004,6 88 -
04:05 5,0 3,2 14,8 Zuiden 14,8 1004,6 88 -
04:11 5,0 3,2 5,8 ZO 5,8 1004,6 88 -
04:15 4,9 3,1 8,2 OZO 8,2 1004,6 88 -
04:21 4,9 3,1 7,6 ZO 7,6 1004,6 88 -
04:25 4,9 3,1 13,7 Zuiden 13,7 1004,6 88 -
04:31 4,9 3,1 8,2 NNW 8,2 1004,6 88 -
04:35 4,9 3,1 10,8 Zuiden 10,8 1004,6 88 -
04:41 4,9 3,1 9,7 Zuiden 9,7 1004,6 88 -
04:45 4,9 3,1 9,0 ZZO 9,0 1004,6 88 -
04:50 4,9 3,1 14,0 Zuiden 14,0 1004,6 88 -
Dagelijkse Samenvatting Donderdag 12 december 2019
Tijd Temp. ( °C ) Dew pt. ( °C ) Wind ( km/h ) van Windvlaag ( km/h ) Luchtdruk ( hPa ) Humid.( % ) Rainrate ( cm )
Hoog5,2 3,5 18,7 ZO ( 188/558 ) 18,7 1006,3 89 -
Gemiddeld5,0 3,3 9,5 ZZO #20/59 10,0 1005,3 89 -
Laag4,7 3,0 5,0   5,0 1004,6 88 -
Dagelijkse Tabular details for Donderdag 12 december 2019
Tijd Temp. ( °C ) Dew pt. ( °C ) Wind ( km/h ) van Windvlaag ( km/h ) Luchtdruk ( hPa ) Humid.( % ) Rainrate ( cm )
00:01 4,7 3,0 11,6 ZZO 11,6 1006,3 89 -
00:05 4,7 3,0 7,2 Oosten 7,2 1006,3 89 -
00:11 4,8 3,1 6,9 ZO 9,3 1006,3 89 -
00:15 4,8 3,1 8,7 OZO 8,7 1006,3 89 -
00:21 4,8 3,1 8,7 ZZO 8,7 1006,3 89 -
00:25 4,8 3,1 7,2 ZO 7,2 1006,3 89 -
00:31 4,9 3,2 7,6 ZO 7,6 1006,3 89 -
00:35 4,9 3,2 9,7 ZO 9,7 1006,3 89 -
00:41 4,9 3,2 5,0 ZZO 12,2 1006,3 89 -
00:45 4,9 3,2 12,2 ZW 12,2 1006,3 89 -
00:51 5,0 3,3 11,1 ZZO 11,1 1006,3 89 -
00:55 5,0 3,3 10,8 ZO 10,8 1005,6 89 -
01:01 5,0 3,3 5,5 ZZW 5,5 1005,6 89 -
01:05 5,0 3,3 14,0 ZZO 14,0 1005,6 89 -
01:11 5,0 3,3 7,6 ZZO 7,6 1005,6 89 -
01:15 5,1 3,4 6,9 ZO 6,9 1005,6 89 -
01:22 5,1 3,4 10,8 Zuiden 10,8 1005,6 89 -
01:26 5,1 3,4 9,7 OZO 9,7 1005,6 89 -
01:30 5,1 3,4 6,1 ZZO 6,1 1005,6 89 -
01:36 5,1 3,4 6,9 ZZO 6,9 1005,6 89 -
01:40 5,1 3,4 11,1 ZO 11,1 1005,6 89 -
01:46 5,1 3,4 6,1 ZO 6,9 1005,6 89 -
01:50 5,1 3,4 14,8 ZO 14,8 1005,6 89 -
01:56 5,1 3,4 8,2 ZZO 8,2 1005,3 89 -
02:00 5,1 3,4 12,6 ZZO 12,6 1005,3 89 -
02:05 5,1 3,4 14,8 OZO 14,8 1005,3 89 -
02:11 5,2 3,5 7,6 ZO 9,7 1005,3 89 -
02:15 5,2 3,5 18,7 WZW 18,7 1005,3 89 -
02:21 5,2 3,5 8,7 ZZO 9,0 1005,3 89 -
02:25 5,2 3,5 12,2 ZZO 12,2 1005,3 89 -
02:31 5,2 3,4 7,2 ZW 7,2 1005,3 88 -
02:35 5,2 3,4 13,0 ZO 13,0 1005,3 88 -
02:41 5,2 3,4 5,8 NNO 5,8 1005,3 88 -
02:46 5,2 3,4 8,2 ZZO 9,0 1005,3 88 -
02:50 5,2 3,4 6,9 ZZO 6,9 1005,3 88 -
02:56 5,2 3,4 7,6 ZZO 7,6 1005,0 88 -
03:00 5,2 3,4 6,9 ZO 6,9 1005,0 88 -
03:06 5,2 3,4 6,1 WZW 6,1 1005,0 88 -
03:10 5,1 3,3 8,2 ZZO 8,2 1005,0 88 -
03:16 5,1 3,3 12,2 ZO 12,2 1004,6 88 -
03:20 5,1 3,3 5,0 ZZO 10,8 1004,6 88 -
03:26 5,1 3,3 17,2 Zuiden 17,2 1004,6 88 -
03:30 5,1 3,3 13,7 ZO 13,7 1004,6 88 -
03:36 5,1 3,3 5,0 ZZO 5,0 1004,6 88 -
03:40 5,1 3,3 10,8 ZO 10,8 1004,6 88 -
03:45 5,1 3,3 8,7 ZO 8,7 1004,6 88 -
03:51 5,0 3,2 9,3 ZO 13,4 1004,6 88 -
03:55 5,0 3,2 10,8 ZO 12,6 1004,6 88 -
04:01 5,0 3,2 5,0 ZZO 10,8 1004,6 88 -
04:05 5,0 3,2 14,8 Zuiden 14,8 1004,6 88 -
04:11 5,0 3,2 5,8 ZO 5,8 1004,6 88 -
04:15 4,9 3,1 8,2 OZO 8,2 1004,6 88 -
04:21 4,9 3,1 7,6 ZO 7,6 1004,6 88 -
04:25 4,9 3,1 13,7 Zuiden 13,7 1004,6 88 -
04:31 4,9 3,1 8,2 NNW 8,2 1004,6 88 -
04:35 4,9 3,1 10,8 Zuiden 10,8 1004,6 88 -
04:41 4,9 3,1 9,7 Zuiden 9,7 1004,6 88 -
04:45 4,9 3,1 9,0 ZZO 9,0 1004,6 88 -
04:50 4,9 3,1 14,0 Zuiden 14,0 1004,6 88 -

Download your copy of this data-set  here

Our weather-data as stored at Weather Underground. Script ontwikkeld door Jim McMurry. Aangepast voor de template door Leuven-Template.eu